Time;durP1;ratioP1;P1;durP2;ratioP2;P2;SDS_P1;SDS_P2;PMS_P1;PMS_P2;Temp;Humidity;BMP_temperature;BMP_pressure;BME280_temperature;BME280_humidity;BME280_pressure;Samples;Min_cycle;Max_cycle;Signal;HPM_P1;HPM_P2
2023/08/16 00:01:38;;;;;;;0.38;0.38;;;;;;;19.62;63.19;102056.28;5076854;28;20480;-84
2023/08/16 00:04:05;;;;;;;0.10;0.10;;;;;;;19.61;63.17;102055.38;5095662;28;20032;-84
2023/08/16 00:06:31;;;;;;;0.00;0.00;;;;;;;19.58;63.20;102052.81;5094464;28;20043;-84
2023/08/16 00:08:58;;;;;;;0.10;0.10;;;;;;;19.54;63.37;102048.50;5094079;28;20034;-85
2023/08/16 00:11:25;;;;;;;0.00;0.00;;;;;;;19.52;63.24;102042.31;5085666;28;20081;-86
2023/08/16 00:13:57;;;;;;;0.05;0.05;;;;;;;19.46;63.68;102054.16;5090379;28;20105;-85
2023/08/16 00:16:23;;;;;;;0.10;0.10;;;;;;;19.42;63.34;102054.34;5085670;28;20404;-85
2023/08/16 00:18:50;;;;;;;0.00;0.00;;;;;;;19.37;63.35;102052.69;5077719;28;20037;-84
2023/08/16 00:21:16;;;;;;;0.10;0.10;;;;;;;19.33;63.33;102056.44;5080795;28;20066;-85
2023/08/16 00:23:42;;;;;;;0.10;0.10;;;;;;;19.27;63.52;102056.66;5087978;28;20058;-85
2023/08/16 00:26:08;;;;;;;0.00;0.00;;;;;;;19.24;63.44;102062.19;5082604;28;20060;-86
2023/08/16 00:28:35;;;;;;;0.43;0.43;;;;;;;19.21;63.65;102059.59;5081775;28;20029;-86
2023/08/16 00:31:01;;;;;;;0.10;0.10;;;;;;;19.17;63.44;102057.94;5093449;28;20027;-86
2023/08/16 00:33:27;;;;;;;0.05;0.05;;;;;;;19.14;63.39;102060.72;5089460;28;20497;-87
2023/08/16 00:35:53;;;;;;;0.00;0.00;;;;;;;19.11;63.12;102055.50;5093756;28;20100;-87
2023/08/16 00:38:19;;;;;;;0.10;0.10;;;;;;;19.08;63.63;102062.72;5089783;28;20039;-86
2023/08/16 00:40:51;;;;;;;0.03;0.03;;;;;;;19.10;63.90;102064.47;5084871;28;20024;-86
2023/08/16 00:43:18;;;;;;;0.10;0.10;;;;;;;19.05;63.85;102068.22;5087753;28;20028;-86
2023/08/16 00:45:47;;;;;;;0.35;0.35;;;;;;;19.04;64.15;102066.47;5082044;28;20469;-86
2023/08/16 00:48:14;;;;;;;0.03;0.03;;;;;;;19.03;63.96;102064.69;5078469;28;20493;-85
2023/08/16 00:50:44;;;;;;;0.10;0.10;;;;;;;19.06;64.20;102069.94;5086066;28;20073;-86
2023/08/16 00:53:11;;;;;;;0.08;0.08;;;;;;;19.03;64.38;102072.75;5090230;28;20515;-85
2023/08/16 00:55:38;;;;;;;0.10;0.10;;;;;;;19.04;64.21;102071.81;5079124;28;20048;-85
2023/08/16 00:58:04;;;;;;;0.10;0.10;;;;;;;19.05;64.31;102072.69;5089646;28;20043;-85
2023/08/16 01:00:31;;;;;;;0.00;0.00;;;;;;;19.06;64.17;102072.63;5075039;28;20436;-85
2023/08/16 01:02:58;;;;;;;0.10;0.10;;;;;;;19.10;64.37;102075.22;5087113;28;20029;-86
2023/08/16 01:05:24;;;;;;;0.20;0.20;;;;;;;19.11;64.37;102077.84;5089116;28;20036;-85
2023/08/16 01:07:51;;;;;;;0.10;0.10;;;;;;;19.15;64.13;102073.25;5091344;28;20048;-86
2023/08/16 01:10:19;;;;;;;0.10;0.10;;;;;;;19.17;64.21;102071.38;5113958;28;20024;-86
2023/08/16 01:12:55;;;;;;;0.10;0.10;;;;;;;19.23;64.27;102076.53;5093611;28;20040;-86
2023/08/16 01:15:29;;;;;;;0.10;0.10;;;;;;;19.24;64.35;102086.34;5094351;28;20039;-86
2023/08/16 01:17:57;;;;;;;0.25;0.20;;;;;;;19.24;64.15;102089.03;5090205;28;20035;-86
2023/08/16 01:20:24;;;;;;;0.32;0.32;;;;;;;19.24;64.10;102091.72;5088723;28;20111;-86
2023/08/16 01:26:01;;;;;;;0.00;0.00;;;;;;;19.32;63.95;102095.00;5086173;27;20375;-83
2023/08/16 01:28:29;;;;;;;0.10;0.10;;;;;;;19.25;63.92;102096.13;5071820;28;20078;-83
2023/08/16 01:31:03;;;;;;;0.10;0.10;;;;;;;19.27;64.14;102094.28;5077762;28;20029;-83
2023/08/16 01:33:30;;;;;;;0.10;0.10;;;;;;;19.23;64.16;102103.41;5067031;28;20050;-83
2023/08/16 01:35:56;;;;;;;0.10;0.10;;;;;;;19.25;64.49;102101.50;5075955;28;20037;-83
2023/08/16 01:38:22;;;;;;;0.10;0.10;;;;;;;19.26;64.18;102102.41;5065873;28;20056;-83
2023/08/16 01:41:20;;;;;;;0.10;0.10;;;;;;;19.30;64.06;102104.94;5073475;28;20059;-83
2023/08/16 01:43:48;;;;;;;2.00;0.63;;;;;;;19.23;63.86;102108.78;5063838;28;20029;-83
2023/08/16 01:46:15;;;;;;;0.20;0.20;;;;;;;19.18;64.11;102110.75;5067790;28;20025;-83
2023/08/16 01:48:43;;;;;;;0.20;0.20;;;;;;;19.15;63.86;102106.38;5073164;28;20035;-83
2023/08/16 01:51:10;;;;;;;0.00;0.00;;;;;;;19.12;63.73;102114.53;5070720;28;20041;-84
2023/08/16 01:53:37;;;;;;;0.38;0.38;;;;;;;19.08;63.91;102100.31;5079797;28;20056;-82
2023/08/16 01:56:04;;;;;;;0.93;0.40;;;;;;;19.03;64.06;102096.94;5062282;28;20037;-83
2023/08/16 01:58:30;;;;;;;0.00;0.00;;;;;;;19.00;63.89;102097.03;5063475;28;20519;-82
2023/08/16 02:00:56;;;;;;;0.00;0.00;;;;;;;18.96;63.74;102100.75;5062549;28;20040;-84
2023/08/16 02:03:22;;;;;;;0.00;0.00;;;;;;;18.93;63.74;102100.88;5064865;28;20060;-83
2023/08/16 02:05:49;;;;;;;0.15;0.15;;;;;;;18.90;63.70;102103.63;5062235;28;20029;-83
2023/08/16 02:08:15;;;;;;;0.70;0.47;;;;;;;18.86;63.81;102104.69;5069569;28;20039;-83
2023/08/16 02:10:41;;;;;;;0.00;0.00;;;;;;;18.84;63.93;102106.53;5069613;28;20055;-82
2023/08/16 02:13:07;;;;;;;0.00;0.00;;;;;;;18.80;63.90;102107.56;5071903;28;20029;-82
2023/08/16 02:15:33;;;;;;;0.05;0.05;;;;;;;18.76;64.09;102104.97;5071697;28;20090;-82
2023/08/16 02:17:59;;;;;;;0.00;0.00;;;;;;;18.73;64.09;102115.84;5067211;28;20504;-82
2023/08/16 02:20:25;;;;;;;0.10;0.10;;;;;;;18.73;63.91;102114.97;5074658;28;20025;-82
2023/08/16 02:22:51;;;;;;;0.08;0.08;;;;;;;18.68;64.15;102112.44;5074332;28;20021;-82
2023/08/16 02:25:18;;;;;;;0.00;0.00;;;;;;;18.67;64.50;102121.41;5075486;28;20064;-82
2023/08/16 02:27:44;;;;;;;0.00;0.00;;;;;;;18.65;64.34;102123.25;5068674;28;20035;-82
2023/08/16 02:30:10;;;;;;;0.10;0.10;;;;;;;18.63;64.26;102119.78;5068275;28;21274;-82
2023/08/16 02:32:36;;;;;;;0.00;0.00;;;;;;;18.62;64.11;102118.00;5073616;28;20051;-83
2023/08/16 02:35:03;;;;;;;0.25;0.25;;;;;;;18.62;64.38;102120.69;5065538;28;20088;-82
2023/08/16 02:37:30;;;;;;;0.00;0.00;;;;;;;18.63;64.36;102119.78;5061344;28;20092;-83
2023/08/16 02:39:57;;;;;;;0.00;0.00;;;;;;;18.65;64.49;102108.97;5058878;28;20036;-83
2023/08/16 02:42:23;;;;;;;0.08;0.08;;;;;;;18.65;64.62;102101.78;5060187;28;20025;-83
2023/08/16 02:44:49;;;;;;;0.20;0.20;;;;;;;18.65;64.36;102109.84;5057667;28;20021;-83
2023/08/16 02:47:15;;;;;;;0.17;0.17;;;;;;;18.64;64.49;102117.94;5057288;28;20103;-83
2023/08/16 02:49:41;;;;;;;0.20;0.20;;;;;;;18.61;64.69;102110.88;5060378;28;20070;-83
2023/08/16 02:52:07;;;;;;;0.10;0.10;;;;;;;18.59;64.45;102118.09;5056210;28;20043;-83
2023/08/16 02:54:33;;;;;;;0.10;0.10;;;;;;;18.57;64.50;102115.47;5056289;28;20029;-83
2023/08/16 02:56:59;;;;;;;0.00;0.00;;;;;;;18.54;64.37;102112.91;5054592;28;20032;-83
2023/08/16 02:59:25;;;;;;;0.10;0.10;;;;;;;18.51;64.22;102115.66;5058777;28;20089;-83
2023/08/16 03:01:52;;;;;;;0.43;0.43;;;;;;;18.48;64.54;102122.94;5056777;28;20055;-83
2023/08/16 03:04:18;;;;;;;0.03;0.03;;;;;;;18.44;64.48;102114.13;5048460;28;20014;-83
2023/08/16 03:06:44;;;;;;;0.00;0.00;;;;;;;18.41;64.43;102116.91;5055458;28;20295;-83
2023/08/16 03:09:10;;;;;;;1.45;1.35;;;;;;;18.38;64.53;102115.22;5047839;28;20082;-83
2023/08/16 03:11:36;;;;;;;0.00;0.00;;;;;;;18.37;64.67;102116.13;5046611;28;20056;-83
2023/08/16 03:14:02;;;;;;;0.43;0.43;;;;;;;18.35;64.73;102115.28;5058797;28;20024;-83
2023/08/16 03:16:30;;;;;;;0.50;0.50;;;;;;;18.35;64.75;102120.66;5052751;28;20409;-82
2023/08/16 03:18:56;;;;;;;0.00;0.00;;;;;;;18.34;64.83;102118.91;5058916;28;20028;-83
2023/08/16 03:21:23;;;;;;;0.20;0.20;;;;;;;18.33;65.01;102114.47;5052283;28;20041;-83
2023/08/16 03:23:49;;;;;;;0.25;0.25;;;;;;;18.32;65.06;102119.88;5059397;28;20024;-82
2023/08/16 03:26:15;;;;;;;0.00;0.00;;;;;;;18.30;64.82;102125.31;5055061;28;20040;-83
2023/08/16 03:28:41;;;;;;;0.30;0.30;;;;;;;18.28;64.62;102129.84;5058719;28;20050;-83
2023/08/16 03:31:08;;;;;;;0.10;0.10;;;;;;;18.27;64.69;102128.09;5056100;28;20033;-83
2023/08/16 03:33:34;;;;;;;0.00;0.00;;;;;;;18.25;64.51;102129.94;5051914;28;20448;-83
2023/08/16 03:36:01;;;;;;;0.00;0.00;;;;;;;18.24;64.57;102134.44;5055062;28;20025;-83
2023/08/16 03:38:27;;;;;;;0.00;0.00;;;;;;;18.24;64.50;102137.13;5053592;28;20032;-83
2023/08/16 03:40:53;;;;;;;0.10;0.10;;;;;;;18.25;64.60;102135.31;5056932;28;20029;-83
2023/08/16 03:43:19;;;;;;;0.00;0.00;;;;;;;18.25;64.74;102140.66;5054642;28;20025;-83
2023/08/16 03:45:47;;;;;;;0.10;0.10;;;;;;;18.26;65.00;102134.38;5058568;28;20052;-83
2023/08/16 03:48:13;;;;;;;0.10;0.10;;;;;;;18.26;64.64;102142.44;5056150;28;20088;-83
2023/08/16 03:50:39;;;;;;;0.10;0.10;;;;;;;18.26;64.72;102127.19;5053884;28;20021;-83
2023/08/16 03:53:05;;;;;;;0.00;0.00;;;;;;;18.25;64.98;102138.00;5058554;28;20036;-83
2023/08/16 03:55:31;;;;;;;0.00;0.00;;;;;;;18.25;65.03;102146.91;5054684;28;20074;-82
2023/08/16 03:58:00;;;;;;;0.10;0.10;;;;;;;18.24;65.03;102144.28;5068505;28;20032;-82
2023/08/16 04:00:28;;;;;;;0.17;0.17;;;;;;;18.27;65.20;102139.69;5059055;28;20027;-83
2023/08/16 04:02:55;;;;;;;0.30;0.30;;;;;;;18.26;65.30;102139.75;5056634;28;20046;-83
2023/08/16 04:05:21;;;;;;;0.17;0.17;;;;;;;18.26;65.41;102153.16;5054161;28;20100;-83
2023/08/16 04:07:48;;;;;;;47.92;1.55;;;;;;;18.23;65.47;102145.19;5050933;28;20052;-83
2023/08/16 04:10:14;;;;;;;0.22;0.22;;;;;;;18.22;65.27;102152.38;5059035;28;20017;-83
2023/08/16 04:12:40;;;;;;;0.05;0.05;;;;;;;18.20;65.37;102148.00;5057816;28;20032;-83
2023/08/16 04:15:07;;;;;;;0.00;0.00;;;;;;;18.18;65.28;102140.00;5050635;28;20077;-83
2023/08/16 04:17:33;;;;;;;0.15;0.15;;;;;;;18.19;65.34;102140.84;5058504;28;20373;-83
2023/08/16 04:19:59;;;;;;;0.00;0.00;;;;;;;18.18;65.16;102139.09;5052283;28;20096;-82
2023/08/16 04:22:25;;;;;;;0.00;0.00;;;;;;;18.17;65.30;102143.59;5042619;28;20029;-82
2023/08/16 04:24:51;;;;;;;0.10;0.10;;;;;;;18.16;65.18;102146.34;5055806;28;20061;-83
2023/08/16 04:27:18;;;;;;;0.00;0.00;;;;;;;18.14;65.26;102142.81;5059185;28;20040;-83
2023/08/16 04:29:44;;;;;;;0.10;0.10;;;;;;;18.13;65.11;102146.41;5056123;28;20025;-83
2023/08/16 04:32:10;;;;;;;0.10;0.10;;;;;;;18.13;65.10;102146.41;5050860;28;20040;-83
2023/08/16 04:34:36;;;;;;;0.10;0.10;;;;;;;18.13;65.26;102147.31;5059870;28;20107;-83
2023/08/16 04:37:02;;;;;;;0.00;0.00;;;;;;;18.13;65.47;102157.16;5051976;28;20393;-83
2023/08/16 04:39:28;;;;;;;0.10;0.10;;;;;;;18.11;65.15;102139.28;5059817;28;20027;-82
2023/08/16 04:41:55;;;;;;;1.98;0.40;;;;;;;18.11;65.17;102138.44;5053954;28;20049;-82
2023/08/16 04:44:21;;;;;;;0.05;0.05;;;;;;;18.11;65.34;102143.78;5058332;28;20025;-83
2023/08/16 04:46:48;;;;;;;0.00;0.00;;;;;;;18.11;65.58;102144.66;5054746;28;20033;-83
2023/08/16 04:49:15;;;;;;;0.10;0.10;;;;;;;18.09;65.48;102151.88;5050548;28;20065;-83
2023/08/16 04:51:41;;;;;;;1.33;1.23;;;;;;;18.09;65.49;102141.16;5056446;28;20070;-82
2023/08/16 04:54:07;;;;;;;0.10;0.10;;;;;;;18.09;65.20;102156.34;5048209;28;20504;-83
2023/08/16 04:56:33;;;;;;;0.10;0.10;;;;;;;18.06;65.32;102154.66;5056505;28;20034;-83
2023/08/16 04:58:59;;;;;;;0.10;0.10;;;;;;;18.07;65.32;102158.22;5050981;28;20025;-83
2023/08/16 05:01:25;;;;;;;0.10;0.10;;;;;;;18.05;65.57;102154.69;5057589;28;20029;-83
2023/08/16 05:03:52;;;;;;;0.13;0.13;;;;;;;18.05;65.29;102150.22;5046161;28;20021;-83
2023/08/16 05:06:18;;;;;;;0.10;0.10;;;;;;;18.04;65.37;102151.13;5046282;28;20052;-83
2023/08/16 05:08:45;;;;;;;0.10;0.10;;;;;;;18.01;65.41;102153.91;5052322;28;20512;-83
2023/08/16 05:11:11;;;;;;;0.13;0.13;;;;;;;18.00;65.71;102157.50;5056441;28;20029;-83
2023/08/16 05:13:37;;;;;;;0.08;0.08;;;;;;;18.00;65.83;102152.16;5054700;28;20033;-83
2023/08/16 05:16:03;;;;;;;0.70;0.57;;;;;;;18.01;65.82;102159.28;5058620;28;20037;-83
2023/08/16 05:18:29;;;;;;;0.50;0.40;;;;;;;18.00;65.96;102157.50;5054346;28;20033;-83
2023/08/16 05:20:56;;;;;;;0.10;0.10;;;;;;;18.02;65.77;102161.03;5048776;28;20412;-83
2023/08/16 05:23:22;;;;;;;0.10;0.10;;;;;;;18.03;66.12;102162.81;5052355;28;20096;-84
2023/08/16 05:25:49;;;;;;;0.10;0.10;;;;;;;18.03;65.84;102162.81;5039859;28;20033;-83
2023/08/16 05:28:15;;;;;;;0.10;0.10;;;;;;;18.06;65.86;102165.38;5045658;28;20034;-83
2023/08/16 05:30:41;;;;;;;0.10;0.10;;;;;;;18.08;66.05;102160.84;5040120;28;20055;-83
2023/08/16 05:33:07;;;;;;;0.10;0.10;;;;;;;18.11;65.80;102166.09;5040714;28;20080;-83
2023/08/16 05:35:34;;;;;;;1.60;0.90;;;;;;;18.13;65.73;102170.56;5049940;28;20100;-83
2023/08/16 05:38:01;;;;;;;0.25;0.25;;;;;;;18.16;65.93;102168.66;5028104;28;20449;-83
2023/08/16 05:40:27;;;;;;;0.00;0.00;;;;;;;18.17;65.80;102164.16;5048214;28;20048;-83
2023/08/16 05:42:54;;;;;;;0.00;0.00;;;;;;;18.21;66.01;102168.53;5033893;28;20061;-83
2023/08/16 05:45:22;;;;;;;0.05;0.05;;;;;;;18.22;66.11;102167.59;5047241;28;20025;-83
2023/08/16 05:47:48;;;;;;;0.10;0.10;;;;;;;18.25;65.82;102173.72;5050980;28;20388;-83
2023/08/16 05:50:14;;;;;;;0.30;0.30;;;;;;;18.29;66.32;102174.50;5046115;28;20027;-83
2023/08/16 05:52:40;;;;;;;0.10;0.10;;;;;;;18.33;66.27;102178.88;5045316;28;20024;-83
2023/08/16 05:55:06;;;;;;;0.70;0.70;;;;;;;18.36;66.40;102181.44;5038566;28;20029;-83
2023/08/16 05:57:32;;;;;;;0.10;0.10;;;;;;;18.41;66.20;102181.31;5047957;28;20036;-86
2023/08/16 05:59:58;;;;;;;0.00;0.00;;;;;;;18.46;66.35;102181.19;5051468;28;20025;-85
2023/08/16 06:02:24;;;;;;;0.00;0.00;;;;;;;18.51;66.42;102185.44;5048411;28;20030;-85
2023/08/16 06:04:52;;;;;;;0.00;0.00;;;;;;;18.55;66.48;102179.03;5043727;28;20036;-82
2023/08/16 06:07:20;;;;;;;0.20;0.20;;;;;;;18.59;66.18;102182.50;5057602;28;20025;-83
2023/08/16 06:09:46;;;;;;;0.10;0.10;;;;;;;18.64;66.37;102190.44;5055221;28;20111;-83
2023/08/16 06:12:13;;;;;;;0.05;0.05;;;;;;;18.69;66.39;102193.84;5056849;28;20096;-82
2023/08/16 06:14:39;;;;;;;0.60;0.60;;;;;;;18.74;66.33;102194.56;5049664;28;20028;-83
2023/08/16 06:17:05;;;;;;;0.00;0.00;;;;;;;18.78;66.35;102193.53;5058748;28;20029;-82
2023/08/16 06:19:31;;;;;;;0.20;0.20;;;;;;;18.82;66.31;102194.34;5058695;28;20056;-83
2023/08/16 06:21:59;;;;;;;0.10;0.10;;;;;;;18.85;65.93;102200.44;5056022;28;20045;-87
2023/08/16 06:24:25;;;;;;;0.00;0.00;;;;;;;18.91;65.94;102199.41;5053847;28;20044;-83
2023/08/16 06:26:51;;;;;;;0.10;0.10;;;;;;;18.95;66.07;102201.06;5055070;28;20500;-83
2023/08/16 06:29:17;;;;;;;0.10;0.10;;;;;;;18.98;66.11;102195.59;5058150;28;20055;-83
2023/08/16 06:31:43;;;;;;;0.10;0.10;;;;;;;19.01;65.65;102194.63;5055899;28;20048;-83
2023/08/16 06:34:09;;;;;;;0.10;0.10;;;;;;;19.03;66.23;102190.94;5058055;28;20021;-83
2023/08/16 06:36:35;;;;;;;0.10;0.10;;;;;;;19.05;66.58;102197.16;5053318;28;20041;-84
2023/08/16 06:39:02;;;;;;;0.00;0.00;;;;;;;19.08;66.48;102205.09;5045518;28;20025;-84
2023/08/16 06:41:28;;;;;;;1.85;0.75;;;;;;;19.11;66.42;102196.03;5035923;28;20095;-82
2023/08/16 06:43:54;;;;;;;0.10;0.10;;;;;;;19.14;66.88;102205.81;5044550;28;20025;-83
2023/08/16 06:46:20;;;;;;;0.20;0.20;;;;;;;19.17;66.91;102200.34;5035594;28;20042;-83
2023/08/16 06:48:47;;;;;;;0.05;0.05;;;;;;;19.20;66.39;102195.75;5047382;28;20029;-84
2023/08/16 06:51:13;;;;;;;0.00;0.00;;;;;;;19.24;66.64;102202.75;5043311;28;20108;-84
2023/08/16 06:53:42;;;;;;;0.10;0.10;;;;;;;19.29;66.63;102205.28;5043875;28;20385;-84
2023/08/16 06:56:08;;;;;;;0.00;0.00;;;;;;;19.21;67.96;102212.72;5041484;28;20022;-84
2023/08/16 06:58:34;;;;;;;0.10;0.10;;;;;;;19.32;67.24;102199.78;5045505;28;20072;-83
2023/08/16 07:01:00;;;;;;;0.10;0.10;;;;;;;19.36;67.03;102201.44;5042571;28;20042;-85
2023/08/16 07:03:26;;;;;;;0.10;0.10;;;;;;;19.39;68.95;102212.09;5041954;28;20037;-83
2023/08/16 07:05:52;;;;;;;0.00;0.00;;;;;;;19.49;67.99;102211.75;5058015;28;20091;-81
2023/08/16 07:08:18;;;;;;;0.38;0.38;;;;;;;19.60;67.41;102208.69;5052312;28;20033;-81
2023/08/16 07:10:44;;;;;;;0.10;0.10;;;;;;;19.70;68.28;102211.00;5056826;28;20557;-82
2023/08/16 07:13:10;;;;;;;0.05;0.05;;;;;;;19.81;68.17;102207.00;5036359;28;20029;-83
2023/08/16 07:15:36;;;;;;;0.10;0.10;;;;;;;19.88;68.99;102209.44;5058362;28;20037;-83
2023/08/16 07:18:03;;;;;;;0.73;0.73;;;;;;;19.95;68.77;102204.72;5043997;28;20041;-83
2023/08/16 07:20:29;;;;;;;0.10;0.10;;;;;;;20.02;68.84;102206.22;5035006;28;20030;-83
2023/08/16 07:22:56;;;;;;;0.32;0.32;;;;;;;20.11;68.03;102206.81;5041969;28;20018;-82
2023/08/16 07:25:22;;;;;;;4.05;0.80;;;;;;;20.18;67.49;102200.28;5037898;28;20018;-84
2023/08/16 07:27:48;;;;;;;0.10;0.10;;;;;;;20.24;67.99;102199.13;5052091;28;20088;-82
2023/08/16 07:30:14;;;;;;;0.10;0.10;;;;;;;20.30;67.56;102202.47;5042414;28;20524;-84
2023/08/16 07:32:40;;;;;;;2.63;0.63;;;;;;;20.33;67.75;102202.34;5037562;28;20033;-84
2023/08/16 07:35:07;;;;;;;0.10;0.10;;;;;;;20.36;67.33;102204.94;5045261;28;20060;-85
2023/08/16 07:37:34;;;;;;;0.65;0.65;;;;;;;20.39;66.99;102208.41;5039194;28;20029;-84
2023/08/16 07:40:00;;;;;;;5.05;0.75;;;;;;;20.44;66.49;102203.75;5053662;28;20025;-84
2023/08/16 07:42:26;;;;;;;0.20;0.20;;;;;;;20.46;66.73;102204.56;5048542;28;20041;-83
2023/08/16 07:44:53;;;;;;;0.43;0.40;;;;;;;20.53;66.58;102216.84;5070906;28;20036;-86
2023/08/16 07:47:19;;;;;;;0.00;0.00;;;;;;;20.59;66.65;102210.34;5044025;28;20740;-84
2023/08/16 07:49:45;;;;;;;0.10;0.10;;;;;;;20.67;66.95;102209.09;5052424;28;20055;-84
2023/08/16 07:52:11;;;;;;;0.00;0.00;;;;;;;20.76;66.55;102204.28;5033014;28;20493;-85
2023/08/16 07:54:38;;;;;;;0.20;0.20;;;;;;;20.87;66.65;102207.41;5024953;28;20159;-85
2023/08/16 07:57:04;;;;;;;0.10;0.10;;;;;;;20.91;67.04;102214.44;5043047;28;20107;-84
2023/08/16 07:59:32;;;;;;;0.00;0.00;;;;;;;21.04;66.79;102216.59;5048600;28;20048;-83
2023/08/16 08:01:58;;;;;;;0.10;0.10;;;;;;;21.16;66.12;102210.69;5043818;28;20017;-83
2023/08/16 08:04:25;;;;;;;0.17;0.17;;;;;;;21.26;65.96;102220.13;5054941;28;20036;-82
2023/08/16 08:06:51;;;;;;;0.10;0.10;;;;;;;21.36;65.43;102217.91;5051531;28;20388;-82
2023/08/16 08:09:18;;;;;;;0.20;0.20;;;;;;;21.42;65.04;102222.16;5046373;28;20025;-83
2023/08/16 08:11:44;;;;;;;0.10;0.10;;;;;;;21.49;65.35;102218.25;5041497;28;20035;-84
2023/08/16 08:14:10;;;;;;;0.60;0.60;;;;;;;21.55;65.07;102220.66;5031698;28;20444;-84
2023/08/16 08:16:36;;;;;;;0.10;0.10;;;;;;;21.64;64.69;102222.09;5052239;28;20036;-82
2023/08/16 08:19:02;;;;;;;0.10;0.10;;;;;;;21.70;64.68;102226.38;5041084;28;20525;-83
2023/08/16 08:21:28;;;;;;;0.10;0.10;;;;;;;21.78;64.31;102229.56;5047442;28;20448;-84
2023/08/16 08:23:54;;;;;;;0.10;0.10;;;;;;;21.83;63.69;102232.06;5037940;28;20404;-83
2023/08/16 08:26:20;;;;;;;0.20;0.20;;;;;;;21.89;62.23;102229.94;5028896;28;20038;-84
2023/08/16 08:28:46;;;;;;;0.05;0.05;;;;;;;21.96;61.67;102228.72;5053166;28;20032;-82
2023/08/16 08:31:13;;;;;;;0.05;0.05;;;;;;;22.01;60.86;102235.72;5033827;28;20038;-82
2023/08/16 08:33:39;;;;;;;0.00;0.00;;;;;;;22.09;61.17;102236.25;5052672;28;20025;-82
2023/08/16 08:36:08;;;;;;;0.47;0.47;;;;;;;22.17;60.64;102235.88;5040665;28;20076;-82
2023/08/16 08:38:35;;;;;;;0.10;0.10;;;;;;;22.20;59.69;102242.03;5045497;28;20021;-81
2023/08/16 08:41:01;;;;;;;0.10;0.10;;;;;;;22.29;60.13;102229.91;5033920;28;20452;-83
2023/08/16 08:43:33;;;;;;;0.30;0.30;;;;;;;22.39;59.33;102230.38;5034169;28;20033;-84
2023/08/16 08:46:00;;;;;;;0.10;0.10;;;;;;;22.41;58.91;102232.06;5041044;28;20049;-83
2023/08/16 08:48:27;;;;;;;0.10;0.10;;;;;;;22.52;59.05;102234.25;5029436;28;20042;-82
2023/08/16 08:50:55;;;;;;;0.00;0.00;;;;;;;22.65;59.01;102244.47;5047328;28;20538;-84
2023/08/16 08:53:22;;;;;;;0.55;0.55;;;;;;;22.77;59.22;102243.88;5034394;28;20030;-83
2023/08/16 08:55:52;;;;;;;0.10;0.10;;;;;;;22.86;57.74;102235.28;5047111;28;20496;-83
2023/08/16 08:58:19;;;;;;;0.30;0.30;;;;;;;23.00;57.28;102236.44;5045720;28;20029;-81
2023/08/16 09:00:46;;;;;;;0.10;0.10;;;;;;;23.10;57.77;102240.41;5032988;28;20036;-81
2023/08/16 09:03:16;;;;;;;0.10;0.10;;;;;;;23.23;56.38;102244.28;5041506;28;20052;-81
2023/08/16 09:05:44;;;;;;;0.10;0.10;;;;;;;23.34;56.52;102243.72;5027596;28;20033;-82
2023/08/16 09:08:13;;;;;;;1.55;1.45;;;;;;;23.44;56.84;102252.25;5024902;28;20026;-82
2023/08/16 09:10:39;;;;;;;0.10;0.10;;;;;;;23.56;56.36;102248.88;5025182;28;20083;-82
2023/08/16 09:13:08;;;;;;;1.95;1.08;;;;;;;23.66;54.91;102251.09;5027329;28;20032;-82
2023/08/16 09:15:34;;;;;;;0.00;0.00;;;;;;;23.71;54.80;102254.44;5034372;28;20030;-82
2023/08/16 09:18:17;;;;;;;0.00;0.00;;;;;;;23.85;54.58;102246.44;5027345;28;20041;-82
2023/08/16 09:20:44;;;;;;;0.10;0.10;;;;;;;23.79;51.85;102252.19;5041059;28;20121;-80
2023/08/16 09:23:14;;;;;;;0.03;0.03;;;;;;;23.93;54.05;102240.66;5044589;28;20087;-82
2023/08/16 09:25:41;;;;;;;0.00;0.00;;;;;;;23.95;52.17;102235.13;5035844;28;20026;-83
2023/08/16 09:28:11;;;;;;;0.10;0.10;;;;;;;24.08;52.79;102240.78;5044896;28;20029;-83
2023/08/16 09:30:37;;;;;;;0.15;0.15;;;;;;;24.16;53.64;102239.41;5036786;28;20066;-83
2023/08/16 09:33:04;;;;;;;0.30;0.30;;;;;;;24.25;51.61;102235.28;5043154;28;20029;-83
2023/08/16 09:35:31;;;;;;;0.10;0.10;;;;;;;24.33;52.30;102232.16;5029111;28;20057;-83
2023/08/16 09:37:58;;;;;;;0.20;0.20;;;;;;;24.44;52.08;102231.56;5040971;28;20036;-84
2023/08/16 09:40:25;;;;;;;0.10;0.10;;;;;;;24.49;50.39;102224.88;5041913;28;20032;-81
2023/08/16 09:42:52;;;;;;;0.10;0.10;;;;;;;24.59;51.31;102230.66;5049532;28;20021;-83
2023/08/16 09:45:34;;;;;;;0.00;0.00;;;;;;;24.78;51.31;102225.06;5040474;28;20052;-83
2023/08/16 09:48:01;;;;;;;0.10;0.10;;;;;;;24.79;50.46;102218.69;5042697;28;20024;-83
2023/08/16 09:50:31;;;;;;;0.00;0.00;;;;;;;24.84;50.14;102222.00;5045891;28;20034;-83
2023/08/16 09:52:58;;;;;;;0.00;0.00;;;;;;;24.93;49.42;102227.84;5044308;28;20033;-83
2023/08/16 09:55:30;;;;;;;0.00;0.00;;;;;;;25.03;49.66;102229.03;5041795;28;20045;-83
2023/08/16 09:57:58;;;;;;;0.20;0.20;;;;;;;25.05;48.39;102224.41;5037782;28;20516;-83
2023/08/16 10:00:29;;;;;;;0.10;0.10;;;;;;;25.19;49.56;102219.00;5040664;28;20033;-82
2023/08/16 10:02:56;;;;;;;0.70;0.50;;;;;;;25.26;49.22;102221.34;5045799;28;20114;-81
2023/08/16 10:05:24;;;;;;;1.35;0.40;;;;;;;25.31;46.68;102219.22;5036357;28;20088;-82
2023/08/16 10:07:52;;;;;;;0.10;0.10;;;;;;;25.38;47.29;102220.66;5041329;28;20040;-82
2023/08/16 10:10:18;;;;;;;0.00;0.00;;;;;;;25.36;45.71;102225.28;5041640;28;20038;-82
2023/08/16 10:12:46;;;;;;;0.22;0.22;;;;;;;25.34;46.25;102222.63;5048448;28;20025;-81
2023/08/16 10:15:14;;;;;;;0.10;0.10;;;;;;;25.39;47.08;102208.84;5058462;28;20034;-80
2023/08/16 10:17:42;;;;;;;0.10;0.10;;;;;;;25.43;46.62;102210.38;5055545;28;20040;-81
2023/08/16 10:20:29;;;;;;;0.00;0.00;;;;;;;25.47;45.59;102211.97;5044943;28;20022;-83
2023/08/16 10:22:59;;;;;;;0.15;0.15;;;;;;;25.56;47.15;102210.50;5047794;28;20093;-82
2023/08/16 10:25:36;;;;;;;0.32;0.32;;;;;;;25.66;46.78;102205.38;5052339;28;20616;-82
2023/08/16 10:28:03;;;;;;;0.43;0.20;;;;;;;25.65;44.18;102214.50;5051402;28;20504;-81
2023/08/16 10:30:32;;;;;;;0.10;0.10;;;;;;;25.74;45.37;102207.63;5050949;28;20040;-80
2023/08/16 10:33:03;;;;;;;0.00;0.00;;;;;;;25.84;46.26;102219.63;5051397;28;20022;-82
2023/08/16 10:35:32;;;;;;;0.10;0.10;;;;;;;25.88;45.28;102213.03;5044390;28;20054;-83
2023/08/16 10:37:58;;;;;;;0.10;0.10;;;;;;;25.94;44.88;102214.50;5057076;28;20029;-84
2023/08/16 10:40:24;;;;;;;0.03;0.03;;;;;;;26.00;43.48;102208.66;5051470;28;20034;-83
2023/08/16 10:45:34;;;;;;;0.07;0.07;;;;;;;26.15;45.17;102207.69;5119425;27;1139392;-82
2023/08/16 10:48:17;;;;;;;0.00;0.00;;;;;;;26.31;42.98;102206.72;5138094;28;20035;-83
2023/08/16 10:50:44;;;;;;;0.00;0.00;;;;;;;26.30;44.74;102205.81;5134050;28;20020;-83
2023/08/16 10:53:12;;;;;;;0.10;0.10;;;;;;;26.38;45.57;102212.63;5131749;28;20115;-83
2023/08/16 10:55:39;;;;;;;0.00;0.00;;;;;;;26.48;45.14;102220.06;5132121;28;20018;-82
2023/08/16 10:58:05;;;;;;;0.10;0.10;;;;;;;26.54;44.30;102202.47;5136559;27;20020;-82
2023/08/16 11:00:37;;;;;;;0.00;0.00;;;;;;;26.62;44.39;102205.56;5131499;28;20040;-84
2023/08/16 11:03:05;;;;;;;0.10;0.10;;;;;;;26.70;44.11;102213.19;5129994;28;20028;-84
2023/08/16 11:05:33;;;;;;;0.10;0.10;;;;;;;26.75;44.39;102207.47;5138926;28;20038;-83
2023/08/16 11:08:02;;;;;;;0.10;0.10;;;;;;;26.78;44.34;102204.53;5121475;28;20027;-84
2023/08/16 11:10:37;;;;;;;0.10;0.10;;;;;;;26.83;44.06;102207.84;5126421;28;20019;-84
2023/08/16 11:13:10;;;;;;;0.10;0.10;;;;;;;26.87;43.42;102203.06;5134971;28;20043;-83
2023/08/16 11:15:37;;;;;;;0.25;0.25;;;;;;;26.91;45.02;102208.19;5127167;28;20092;-84
2023/08/16 11:18:03;;;;;;;0.10;0.10;;;;;;;27.01;43.28;102202.13;5132687;28;20023;-84
2023/08/16 11:20:30;;;;;;;0.10;0.10;;;;;;;27.10;43.13;102207.81;5125199;28;20036;-84
2023/08/16 11:22:58;;;;;;;0.10;0.10;;;;;;;27.10;41.04;102205.09;5126592;28;20027;-84
2023/08/16 11:25:35;;;;;;;0.43;0.38;;;;;;;27.21;42.04;102198.03;5117879;28;20027;-84
2023/08/16 11:28:04;;;;;;;5.78;0.88;;;;;;;27.30;43.65;102205.53;5113762;28;20107;-84
2023/08/16 11:30:31;;;;;;;0.00;0.00;;;;;;;27.39;44.13;102196.75;5114558;28;20035;-83